Time;durP1;ratioP1;P1;durP2;ratioP2;P2;SDS_P1;SDS_P2;PMS_P1;PMS_P2;Temp;Humidity;BMP_temperature;BMP_pressure;BME280_temperature;BME280_humidity;BME280_pressure;Samples;Min_cycle;Max_cycle;Signal;HPM_P1;HPM_P2
2022/01/08 00:00:12;;;;;;;11.27;4.50;;;;;;;-0.01;100.00;95733.72;5052056;28;20083;-67
2022/01/08 00:02:37;;;;;;;;;;;;;;;0.01;100.00;95728.38;5052318;28;20041;-68
2022/01/08 00:05:03;;;;;;;9.40;3.95;;;;;;;0.08;100.00;95716.31;5050514;28;20346;-67
2022/01/08 00:07:29;;;;;;;9.95;3.92;;;;;;;0.09;100.00;95720.50;5053021;28;20084;-67
2022/01/08 00:09:54;;;;;;;10.25;4.07;;;;;;;0.13;100.00;95710.59;5052566;28;20413;-67
2022/01/08 00:12:20;;;;;;;9.63;3.88;;;;;;;-0.03;100.00;95701.28;5051869;28;20041;-67
2022/01/08 00:14:49;;;;;;;11.82;4.28;;;;;;;-0.07;100.00;95694.88;5050037;28;20049;-67
2022/01/08 00:17:15;;;;;;;9.82;4.10;;;;;;;-0.05;100.00;95685.97;5051613;28;20049;-67
2022/01/08 00:19:41;;;;;;;9.52;3.92;;;;;;;-0.23;100.00;95669.22;5051602;28;20086;-68
2022/01/08 00:22:06;;;;;;;10.55;4.32;;;;;;;-0.17;100.00;95678.84;5051425;28;20531;-67
2022/01/08 00:24:32;;;;;;;10.40;4.38;;;;;;;-0.20;100.00;95672.25;5051190;28;20040;-67
2022/01/08 00:26:57;;;;;;;10.20;4.05;;;;;;;-0.27;100.00;95676.53;5051223;28;20095;-68
2022/01/08 00:29:23;;;;;;;9.95;3.55;;;;;;;-0.33;100.00;95675.47;5051570;28;20041;-68
2022/01/08 00:31:52;;;;;;;11.77;4.30;;;;;;;-0.45;100.00;95676.13;5051800;28;20492;-68
2022/01/08 00:34:18;;;;;;;9.82;3.80;;;;;;;-0.46;100.00;95677.91;5055047;28;20048;-67
2022/01/08 00:36:46;;;;;;;11.38;4.00;;;;;;;-0.37;100.00;95678.63;5054886;28;20144;-67
2022/01/08 00:39:13;;;;;;;10.65;4.75;;;;;;;-0.39;100.00;95667.66;5055131;28;20108;-67
2022/01/08 00:41:39;;;;;;;10.88;4.30;;;;;;;-0.36;100.00;95673.28;5054551;28;20037;-68
2022/01/08 00:44:07;;;;;;;10.57;4.30;;;;;;;-0.48;100.00;95655.84;5054685;28;20510;-66
2022/01/08 00:46:34;;;;;;;11.52;4.35;;;;;;;-0.46;100.00;95654.66;5054134;28;20510;-66
2022/01/08 00:49:03;;;;;;;13.40;4.22;;;;;;;-0.43;100.00;95643.97;5054631;28;20183;-68
2022/01/08 00:51:29;;;;;;;10.93;4.13;;;;;;;-0.56;100.00;95646.38;5054168;28;20526;-67
2022/01/08 00:53:54;;;;;;;12.05;4.80;;;;;;;-0.52;100.00;95641.66;5054145;28;20128;-67
2022/01/08 00:56:20;;;;;;;12.70;4.55;;;;;;;-0.52;100.00;95629.56;5053938;28;20051;-67
2022/01/08 00:58:46;;;;;;;10.90;4.15;;;;;;;-0.47;100.00;95629.00;5054216;28;20127;-67
2022/01/08 01:01:12;;;;;;;11.93;4.40;;;;;;;-0.50;100.00;95626.78;5054656;28;20469;-67
2022/01/08 01:03:37;;;;;;;11.18;3.95;;;;;;;-0.60;100.00;95627.84;5054126;28;20461;-67
2022/01/08 01:06:07;;;;;;;13.35;4.85;;;;;;;-0.67;100.00;95623.59;5053419;28;20473;-68
2022/01/08 01:08:33;;;;;;;10.13;4.15;;;;;;;-0.63;100.00;95617.09;5054055;28;20071;-67
2022/01/08 01:10:59;;;;;;;12.90;4.68;;;;;;;-0.58;100.00;95617.34;5053845;28;20528;-67
2022/01/08 01:13:24;;;;;;;11.63;5.18;;;;;;;-0.63;100.00;95617.91;5053772;28;20048;-67
2022/01/08 01:15:50;;;;;;;10.55;4.25;;;;;;;-0.60;100.00;95611.56;5053571;28;20052;-67
2022/01/08 01:18:15;;;;;;;11.63;4.97;;;;;;;-0.58;100.00;95604.44;5053609;28;20049;-66
2022/01/08 01:20:41;;;;;;;10.45;4.05;;;;;;;-0.57;100.00;95608.63;5051681;28;20132;-67
2022/01/08 01:23:13;;;;;;;11.85;5.05;;;;;;;-0.57;100.00;95606.03;5053459;28;20049;-67
2022/01/08 01:25:50;;;;;;;11.32;4.35;;;;;;;-0.72;100.00;95608.63;5053375;28;20060;-67
2022/01/08 01:47:03;;;;;;;11.90;5.20;;;;;;;-0.68;100.00;95557.44;5053217;28;20493;-67
2022/01/08 01:49:31;;;;;;;11.27;4.80;;;;;;;-0.57;100.00;95564.72;5051833;28;20052;-66
2022/01/08 01:51:59;;;;;;;12.10;5.60;;;;;;;-0.56;100.00;95561.13;5053239;28;20048;-67
2022/01/08 01:54:27;;;;;;;14.52;5.35;;;;;;;-0.60;100.00;95554.72;5052759;28;20520;-67
2022/01/08 01:56:57;;;;;;;12.70;5.32;;;;;;;-0.58;100.00;95552.78;5052559;28;20504;-67
2022/01/08 01:59:23;;;;;;;12.23;5.13;;;;;;;-0.67;100.00;95543.53;5053010;28;20041;-67
2022/01/08 02:01:48;;;;;;;12.98;5.30;;;;;;;-0.73;100.00;95552.00;5052781;28;20532;-67
2022/01/08 02:04:16;;;;;;;10.98;4.93;;;;;;;-0.70;100.00;95549.06;5052704;28;20579;-67
2022/01/08 02:06:41;;;;;;;13.02;5.55;;;;;;;-0.59;100.00;95546.03;5052903;28;20043;-67
2022/01/08 02:09:09;;;;;;;11.65;5.63;;;;;;;-0.58;100.00;95547.63;5052733;28;20040;-67
2022/01/08 02:12:00;;;;;;;14.93;5.28;;;;;;;-0.67;100.00;95535.78;5051336;28;20124;-67
2022/01/08 02:14:30;;;;;;;12.45;4.97;;;;;;;-0.54;100.00;95528.16;5052618;28;20045;-67
2022/01/08 02:16:57;;;;;;;13.30;5.38;;;;;;;-0.57;100.00;95519.00;5052458;28;20435;-67
2022/01/08 02:19:23;;;;;;;11.55;5.18;;;;;;;-0.57;100.00;95513.03;5052627;28;20475;-67
2022/01/08 02:21:52;;;;;;;13.02;5.10;;;;;;;-0.53;100.00;95501.38;5050820;28;20045;-67
2022/01/08 02:24:20;;;;;;;12.25;5.40;;;;;;;-0.50;100.00;95495.81;5052202;28;20049;-67
2022/01/08 02:26:45;;;;;;;;;;;;;;;-0.44;100.00;95492.50;5052665;28;20527;-67
2022/01/08 02:29:14;;;;;;;12.70;5.10;;;;;;;-0.39;100.00;95495.31;5052302;28;19920;-67
2022/01/08 02:31:39;;;;;;;11.95;5.15;;;;;;;-0.36;100.00;95494.19;5052131;28;20057;-67
2022/01/08 02:34:06;;;;;;;13.00;5.72;;;;;;;-0.37;100.00;95483.03;5052108;28;20546;-68
2022/01/08 02:36:34;;;;;;;11.60;5.15;;;;;;;-0.30;100.00;95488.25;5051684;28;20243;-67
2022/01/08 02:39:01;;;;;;;12.27;5.63;;;;;;;-0.37;100.00;95484.81;5052050;28;20069;-68
2022/01/08 02:41:27;;;;;;;12.38;5.55;;;;;;;-0.37;100.00;95490.00;5052154;28;20524;-68
2022/01/08 02:43:53;;;;;;;13.38;5.50;;;;;;;-0.20;100.00;95481.00;5050671;28;20074;-68
2022/01/08 02:46:19;;;;;;;13.98;5.53;;;;;;;-0.22;100.00;95475.19;5051784;28;20033;-68
2022/01/08 02:48:45;;;;;;;12.43;5.80;;;;;;;-0.25;100.00;95477.38;5050701;28;20096;-68
2022/01/08 02:51:10;;;;;;;13.38;5.30;;;;;;;-0.18;100.00;95470.47;5051756;28;20065;-68
2022/01/08 02:53:38;;;;;;;13.05;5.55;;;;;;;-0.27;100.00;95462.84;5052039;28;20455;-68
2022/01/08 02:56:07;;;;;;;18.30;6.38;;;;;;;-0.28;100.00;95450.09;5050981;28;20037;-68
2022/01/08 02:58:36;;;;;;;13.43;6.03;;;;;;;-0.21;100.00;95452.75;5051891;28;20404;-68
2022/01/08 03:01:02;;;;;;;16.17;5.90;;;;;;;-0.28;100.00;95443.16;5051789;28;20312;-66
2022/01/08 03:03:28;;;;;;;13.05;5.68;;;;;;;-0.18;100.00;95432.50;5052358;28;20049;-66
2022/01/08 03:05:53;;;;;;;14.85;6.25;;;;;;;-0.28;100.00;95424.25;5051073;28;20052;-67
2022/01/08 03:08:22;;;;;;;12.68;5.07;;;;;;;-0.23;100.00;95415.94;5051614;28;20045;-67
2022/01/08 03:10:50;;;;;;;13.68;5.78;;;;;;;-0.25;100.00;95412.75;5051943;28;20342;-66
2022/01/08 03:13:17;;;;;;;13.18;6.07;;;;;;;-0.35;100.00;95413.88;5052202;28;20515;-66
2022/01/08 03:15:42;;;;;;;15.43;5.70;;;;;;;-0.13;100.00;95411.25;5052167;28;20115;-67
2022/01/08 03:18:08;;;;;;;13.63;5.55;;;;;;;-0.10;100.00;95400.53;5050714;28;20068;-67
2022/01/08 03:20:43;;;;;;;12.57;5.43;;;;;;;-0.26;100.00;95380.97;5051143;28;20359;-67
2022/01/08 03:23:13;;;;;;;12.82;5.45;;;;;;;-0.13;100.00;95400.91;5050471;28;20048;-67
2022/01/08 03:25:39;;;;;;;14.73;5.05;;;;;;;-0.18;100.00;95388.53;5051336;28;20037;-67
2022/01/08 03:28:05;;;;;;;14.23;5.53;;;;;;;-0.20;100.00;95392.31;5050125;28;20068;-67
2022/01/08 03:30:34;;;;;;;10.77;4.68;;;;;;;-0.07;100.00;95382.06;5051799;28;20045;-68
2022/01/08 03:32:59;;;;;;;10.80;4.65;;;;;;;-0.12;100.00;95385.22;5051709;28;20116;-67
2022/01/08 03:35:25;;;;;;;11.52;4.75;;;;;;;-0.07;100.00;95379.47;5050945;28;20124;-68
2022/01/08 03:37:51;;;;;;;10.85;4.47;;;;;;;-0.10;100.00;95377.28;5051459;28;20113;-66
2022/01/08 03:40:16;;;;;;;13.05;4.63;;;;;;;-0.10;100.00;95369.53;5051325;28;20094;-66
2022/01/08 03:42:44;;;;;;;7.82;3.17;;;;;;;-0.10;100.00;95357.41;5051336;28;20045;-66
2022/01/08 03:45:10;;;;;;;11.70;3.40;;;;;;;-0.17;100.00;95353.97;5050584;28;20052;-66
2022/01/08 03:48:06;;;;;;;10.93;2.97;;;;;;;-0.10;100.00;95354.03;5051068;28;20056;-68
2022/01/08 03:50:32;;;;;;;8.02;2.95;;;;;;;0.02;100.00;95339.56;5051048;28;20044;-66
2022/01/08 03:52:57;;;;;;;6.43;2.42;;;;;;;-0.05;100.00;95349.06;5049597;28;20041;-66
2022/01/08 03:55:23;;;;;;;6.57;2.05;;;;;;;-0.09;100.00;95350.44;5050490;28;20073;-67
2022/01/08 03:57:49;;;;;;;7.93;2.67;;;;;;;-0.10;100.00;95343.69;5051173;28;20056;-67
2022/01/08 04:00:15;;;;;;;7.97;2.72;;;;;;;-0.06;100.00;95355.22;5051010;28;20049;-67
2022/01/08 04:02:42;;;;;;;8.63;2.65;;;;;;;-0.05;100.00;95341.31;5051266;28;20037;-67
2022/01/08 04:05:08;;;;;;;8.85;3.10;;;;;;;-0.12;100.00;95343.84;5050610;28;20400;-67
2022/01/08 04:07:36;;;;;;;7.20;2.78;;;;;;;-0.05;100.00;95341.31;5054148;28;20041;-67
2022/01/08 04:10:02;;;;;;;6.05;2.25;;;;;;;-0.09;100.00;95340.91;5055177;28;20116;-67
2022/01/08 04:12:40;;;;;;;7.68;2.72;;;;;;;-0.06;100.00;95344.88;5053520;28;20183;-67
2022/01/08 04:15:20;;;;;;;8.23;2.42;;;;;;;-0.18;100.00;95342.03;5055094;28;20072;-67
2022/01/08 04:17:47;;;;;;;8.50;2.88;;;;;;;-0.10;100.00;95343.69;5055157;28;20037;-67
2022/01/08 04:20:13;;;;;;;7.82;2.75;;;;;;;0.01;100.00;95332.78;5054902;28;20155;-67
2022/01/08 04:22:40;;;;;;;8.63;2.70;;;;;;;-0.06;100.00;95340.50;5055169;28;20613;-67
2022/01/08 04:25:07;;;;;;;7.80;3.25;;;;;;;-0.06;100.00;95327.56;5055366;28;20068;-67
2022/01/08 04:27:35;;;;;;;8.38;2.70;;;;;;;0.01;100.00;95321.66;5056766;28;20139;-68
2022/01/08 04:30:04;;;;;;;;;;;;;;;-0.01;100.00;95317.47;5062623;28;20128;-68
2022/01/08 04:32:30;;;;;;;8.18;2.58;;;;;;;-0.12;100.00;95317.19;5054486;28;20342;-68
2022/01/08 04:34:56;;;;;;;9.02;3.25;;;;;;;0.01;100.00;95317.28;5054794;28;20095;-68
2022/01/08 04:37:22;;;;;;;7.50;2.90;;;;;;;-0.03;100.00;95323.81;5055011;28;20040;-66
2022/01/08 04:39:48;;;;;;;8.32;3.00;;;;;;;0.02;100.00;95324.06;5055499;28;20045;-66
2022/01/08 04:42:13;;;;;;;8.38;2.45;;;;;;;0.12;100.00;95313.34;5055538;28;20118;-66
2022/01/08 04:44:39;;;;;;;7.97;2.63;;;;;;;0.07;100.00;95313.94;5056519;28;20053;-67
2022/01/08 04:47:05;;;;;;;7.68;2.75;;;;;;;-0.06;100.00;95308.69;5055043;28;20037;-67
2022/01/08 04:49:30;;;;;;;6.80;2.42;;;;;;;0.03;100.00;95310.13;5054637;28;20463;-67
2022/01/08 04:51:57;;;;;;;7.30;2.42;;;;;;;0.01;100.00;95314.69;5054597;28;20045;-67
2022/01/08 04:54:23;;;;;;;7.10;2.20;;;;;;;0.16;100.00;95317.13;5054648;28;20524;-67
2022/01/08 04:56:49;;;;;;;6.97;2.40;;;;;;;0.10;100.00;95323.06;5054254;28;20122;-67
2022/01/08 04:59:14;;;;;;;5.95;2.08;;;;;;;0.15;100.00;95313.75;5054534;28;20041;-67
2022/01/08 05:01:40;;;;;;;7.90;2.80;;;;;;;0.15;100.00;95320.72;5054186;28;20116;-67
2022/01/08 05:04:06;;;;;;;5.38;1.77;;;;;;;0.11;100.00;95322.91;5054134;28;20045;-67
2022/01/08 05:06:31;;;;;;;5.80;1.85;;;;;;;0.20;100.00;95316.56;5076770;22;20492;-70
2022/01/08 05:08:58;;;;;;;6.60;2.10;;;;;;;0.16;100.00;95317.97;5062681;28;20049;-69
2022/01/08 05:11:29;;;;;;;6.55;1.75;;;;;;;0.22;100.00;95306.84;5062798;28;20112;-69
2022/01/08 05:13:57;;;;;;;6.93;1.52;;;;;;;0.22;100.00;95314.59;5063555;28;20578;-71
2022/01/08 05:16:25;;;;;;;5.82;1.70;;;;;;;0.21;100.00;95310.38;5056486;28;20386;-68
2022/01/08 05:18:53;;;;;;;4.65;1.50;;;;;;;0.25;100.00;95301.25;5056067;28;20056;-69
2022/01/08 05:21:25;;;;;;;4.68;1.42;;;;;;;0.41;100.00;95309.69;5058900;28;20091;-69
2022/01/08 05:23:50;;;;;;;4.78;1.63;;;;;;;0.35;100.00;95315.63;5069782;28;20049;-70
2022/01/08 05:26:18;;;;;;;4.65;1.52;;;;;;;0.38;100.00;95315.25;5064588;28;20041;-69
2022/01/08 05:28:44;;;;;;;5.83;1.80;;;;;;;0.35;100.00;95306.06;5058693;28;20052;-69
2022/01/08 05:31:12;;;;;;;4.15;1.48;;;;;;;0.41;100.00;95313.06;5057874;28;20262;-70
2022/01/08 05:33:37;;;;;;;5.15;1.50;;;;;;;0.47;100.00;95324.41;5057261;28;20076;-68
2022/01/08 05:36:05;;;;;;;5.18;1.67;;;;;;;0.52;100.00;95311.69;5056966;28;20033;-68
2022/01/08 05:38:31;;;;;;;;;;;;;;;0.54;100.00;95330.44;5056139;28;20040;-68
2022/01/08 05:40:56;;;;;;;5.00;1.85;;;;;;;0.49;100.00;95327.63;5055794;28;20058;-69
2022/01/08 05:43:23;;;;;;;5.00;1.55;;;;;;;0.53;100.00;95334.00;5056034;28;20061;-69
2022/01/08 05:45:49;;;;;;;5.20;1.90;;;;;;;0.55;100.00;95337.19;5056714;28;20044;-70
2022/01/08 05:48:15;;;;;;;5.95;2.00;;;;;;;0.48;100.00;95337.16;5057751;28;20106;-68
2022/01/08 05:50:40;;;;;;;5.82;1.88;;;;;;;0.45;100.00;95341.94;5058991;28;20041;-69
2022/01/08 05:53:08;;;;;;;6.28;1.85;;;;;;;0.36;100.00;95330.94;5057072;28;20044;-69
2022/01/08 05:55:34;;;;;;;6.32;2.08;;;;;;;0.41;100.00;95343.31;5056140;28;20056;-69
2022/01/08 05:57:59;;;;;;;7.20;2.45;;;;;;;0.31;100.00;95350.63;5056166;28;20037;-68
2022/01/08 06:00:26;;;;;;;6.28;2.28;;;;;;;0.27;100.00;95339.88;5055400;28;20120;-69
2022/01/08 06:02:52;;;;;;;7.28;2.63;;;;;;;0.19;100.00;95347.78;5056831;28;20051;-68
2022/01/08 06:05:18;;;;;;;7.13;2.40;;;;;;;0.10;100.00;95349.72;5056021;28;20191;-69
2022/01/08 06:07:46;;;;;;;7.82;3.08;;;;;;;0.15;100.00;95347.38;5056225;28;20041;-68
2022/01/08 06:10:12;;;;;;;7.43;2.28;;;;;;;0.09;100.00;95352.50;5055111;28;20041;-70
2022/01/08 06:12:38;;;;;;;8.65;2.75;;;;;;;0.06;100.00;95353.72;5056016;28;20087;-70
2022/01/08 06:15:04;;;;;;;7.85;2.80;;;;;;;0.05;100.00;95351.28;5054703;28;20041;-69
2022/01/08 06:17:31;;;;;;;8.18;3.00;;;;;;;0.09;100.00;95355.91;5054712;28;20118;-69
2022/01/08 06:19:57;;;;;;;9.93;2.72;;;;;;;0.08;100.00;95354.31;5054954;28;20040;-69
2022/01/08 06:22:23;;;;;;;10.25;2.70;;;;;;;0.05;100.00;95357.25;5055055;28;20120;-69
2022/01/08 06:24:48;;;;;;;7.50;2.47;;;;;;;0.14;100.00;95356.13;5055035;28;20091;-69
2022/01/08 06:27:14;;;;;;;8.88;3.35;;;;;;;0.03;100.00;95364.41;5054478;28;20029;-69
2022/01/08 06:29:39;;;;;;;8.35;2.47;;;;;;;0.07;100.00;95363.06;5054287;28;20064;-69
2022/01/08 06:32:06;;;;;;;6.85;2.30;;;;;;;0.10;100.00;95365.25;5052958;28;20136;-69
2022/01/08 06:34:37;;;;;;;9.13;2.78;;;;;;;0.06;100.00;95374.41;5054269;28;20044;-69
2022/01/08 06:37:03;;;;;;;7.60;2.70;;;;;;;0.03;100.00;95374.75;5055082;28;20033;-69
2022/01/08 06:39:32;;;;;;;7.78;2.85;;;;;;;0.05;100.00;95377.94;5055273;28;20136;-69
2022/01/08 06:41:57;;;;;;;8.05;2.65;;;;;;;0.09;100.00;95376.59;5053174;28;20045;-69
2022/01/08 06:44:23;;;;;;;8.52;2.22;;;;;;;0.06;100.00;95364.06;5053823;28;20049;-70
2022/01/08 06:46:48;;;;;;;8.48;2.28;;;;;;;0.02;100.00;95374.97;5053786;28;20123;-69
2022/01/08 06:49:14;;;;;;;6.20;2.20;;;;;;;-0.01;100.00;95368.38;5054483;28;20101;-69
2022/01/08 06:51:41;;;;;;;6.97;2.40;;;;;;;0.01;100.00;95381.91;5052546;28;20098;-70
2022/01/08 06:54:07;;;;;;;8.15;2.60;;;;;;;0.02;100.00;95386.09;5052862;28;20089;-71
2022/01/08 06:56:32;;;;;;;7.18;2.63;;;;;;;0.02;100.00;95386.09;5053784;28;20044;-69
2022/01/08 06:59:01;;;;;;;9.70;3.53;;;;;;;0.10;100.00;95396.28;5057253;28;20459;-69
2022/01/08 07:01:26;;;;;;;9.80;2.85;;;;;;;0.16;100.00;95384.38;5054698;28;20037;-70
2022/01/08 07:03:54;;;;;;;7.63;2.58;;;;;;;0.15;100.00;95390.53;5055131;28;20397;-70
2022/01/08 07:06:20;;;;;;;8.07;2.83;;;;;;;0.16;100.00;95415.41;5054439;28;20553;-70
2022/01/08 07:08:47;;;;;;;7.00;2.50;;;;;;;0.23;100.00;95421.44;5055618;28;20072;-68
2022/01/08 07:11:13;;;;;;;7.78;2.47;;;;;;;0.25;100.00;95435.75;5053851;28;20401;-68
2022/01/08 07:13:41;;;;;;;7.60;2.53;;;;;;;0.24;100.00;95444.50;5053186;28;20533;-71
2022/01/08 07:16:06;;;;;;;;;;;;;;;0.30;100.00;95466.22;5053655;28;20124;-69
2022/01/08 07:18:34;;;;;;;7.05;2.50;;;;;;;0.32;100.00;95491.91;5052029;28;20028;-69
2022/01/08 07:21:00;;;;;;;3.70;1.27;;;;;;;0.40;100.00;95496.94;5052375;28;20041;-68
2022/01/08 07:23:26;;;;;;;4.38;1.30;;;;;;;0.44;100.00;95511.91;5053900;28;20390;-70
2022/01/08 07:25:53;;;;;;;2.30;1.00;;;;;;;0.49;100.00;95517.31;5053219;28;20400;-68
2022/01/08 07:28:19;;;;;;;1.88;0.90;;;;;;;0.42;100.00;95510.47;5054406;28;20401;-68
2022/01/08 07:30:45;;;;;;;1.55;0.90;;;;;;;0.42;100.00;95520.81;5054222;28;20052;-69
2022/01/08 07:33:11;;;;;;;1.88;0.82;;;;;;;0.37;100.00;95533.53;5054568;28;20041;-69
2022/01/08 07:35:40;;;;;;;4.22;1.50;;;;;;;0.38;100.00;95537.75;5053790;28;20114;-69
2022/01/08 07:38:06;;;;;;;4.40;1.40;;;;;;;0.40;99.72;95546.09;5055198;28;20045;-70
2022/01/08 07:40:32;;;;;;;1.20;0.75;;;;;;;0.33;98.43;95551.22;5054874;28;20111;-69
2022/01/08 07:42:59;;;;;;;1.42;0.70;;;;;;;0.34;98.50;95558.00;5059980;28;20056;-67
2022/01/08 07:45:28;;;;;;;2.05;0.70;;;;;;;0.32;98.70;95577.25;5069741;28;20045;-67
2022/01/08 07:47:53;;;;;;;2.38;0.73;;;;;;;0.35;99.13;95579.50;5061178;28;20045;-70
2022/01/08 07:50:19;;;;;;;2.25;0.88;;;;;;;0.40;99.01;95577.94;5055652;28;20255;-68
2022/01/08 07:52:45;;;;;;;0.88;0.70;;;;;;;0.37;98.21;95596.41;5056441;28;20112;-69
2022/01/08 07:55:14;;;;;;;1.92;0.95;;;;;;;0.41;98.03;95620.13;5057175;28;20041;-69
2022/01/08 07:57:40;;;;;;;3.55;0.90;;;;;;;0.39;98.24;95614.34;5055923;28;20041;-68
2022/01/08 08:00:08;;;;;;;3.33;1.10;;;;;;;0.38;98.69;95628.28;5056200;28;20120;-68
2022/01/08 08:02:34;;;;;;;2.67;1.00;;;;;;;0.41;98.20;95625.31;5055754;28;20045;-68
2022/01/08 08:05:00;;;;;;;2.72;1.00;;;;;;;0.46;97.96;95648.84;5055179;28;20052;-68
2022/01/08 08:07:27;;;;;;;2.80;0.90;;;;;;;0.45;99.02;95655.81;5056783;28;20041;-68
2022/01/08 08:09:52;;;;;;;4.47;1.38;;;;;;;0.38;99.55;95664.50;5058537;28;20041;-67
2022/01/08 08:12:18;;;;;;;4.22;1.35;;;;;;;0.40;99.65;95675.47;5059570;28;20056;-68
2022/01/08 08:14:43;;;;;;;3.83;1.17;;;;;;;0.49;100.00;95679.53;5061329;28;20045;-69
2022/01/08 08:17:10;;;;;;;5.18;1.40;;;;;;;0.51;99.90;95696.47;5065368;28;20526;-69
2022/01/08 08:19:36;;;;;;;6.18;1.60;;;;;;;0.46;99.18;95705.75;5059944;28;20381;-70
2022/01/08 08:22:02;;;;;;;7.07;2.05;;;;;;;0.49;100.00;95710.59;5058303;28;20061;-69
2022/01/08 08:24:27;;;;;;;4.63;1.42;;;;;;;0.45;99.38;95712.72;5056713;28;20064;-69
2022/01/08 08:26:53;;;;;;;4.55;1.40;;;;;;;0.52;98.89;95720.53;5054947;28;20139;-68
2022/01/08 08:29:18;;;;;;;4.70;1.60;;;;;;;0.46;97.79;95727.25;5055668;28;20073;-69
2022/01/08 08:31:47;;;;;;;4.90;1.75;;;;;;;0.56;98.23;95742.50;5054839;28;20044;-70
2022/01/08 08:34:14;;;;;;;4.70;1.50;;;;;;;0.51;96.82;95735.28;5055563;28;20412;-68
2022/01/08 08:36:39;;;;;;;5.72;1.40;;;;;;;0.54;95.93;95741.88;5054509;28;20116;-68
2022/01/08 08:39:05;;;;;;;5.13;1.38;;;;;;;0.49;97.22;95757.16;5055329;28;20436;-69
2022/01/08 08:41:31;;;;;;;3.97;1.40;;;;;;;0.45;96.28;95774.81;5055449;28;20516;-70
2022/01/08 08:43:59;;;;;;;4.43;1.27;;;;;;;0.53;96.50;95779.06;5055428;28;20047;-68
2022/01/08 08:46:25;;;;;;;4.43;1.30;;;;;;;0.56;96.67;95783.09;5054003;28;20053;-69
2022/01/08 08:48:53;;;;;;;4.38;1.67;;;;;;;0.51;98.10;95783.66;5054708;28;20099;-70
2022/01/08 08:51:22;;;;;;;4.45;1.48;;;;;;;0.48;97.98;95787.38;5053448;28;20033;-69
2022/01/08 08:53:48;;;;;;;4.95;1.60;;;;;;;0.55;98.75;95802.22;5055858;28;20045;-67
2022/01/08 08:56:13;;;;;;;5.38;1.45;;;;;;;0.45;98.52;95811.06;5058798;28;20090;-69
2022/01/08 08:58:39;;;;;;;7.80;1.70;;;;;;;0.47;98.56;95806.50;5058429;28;20428;-69
2022/01/08 09:01:05;;;;;;;6.13;1.83;;;;;;;0.63;99.83;95815.03;5057765;28;20120;-69
2022/01/08 09:03:32;;;;;;;4.28;1.50;;;;;;;0.67;99.33;95827.41;5056147;28;20045;-69
2022/01/08 09:05:58;;;;;;;7.38;1.77;;;;;;;0.51;98.02;95818.09;5056444;28;20041;-68
2022/01/08 09:08:28;;;;;;;7.00;1.70;;;;;;;0.62;97.81;95824.56;5062930;28;20100;-69
2022/01/08 09:10:53;;;;;;;6.28;1.80;;;;;;;0.65;97.38;95829.41;5075434;28;20045;-69
2022/01/08 09:13:20;;;;;;;6.22;2.15;;;;;;;0.64;95.85;95827.78;5060926;28;20494;-70
2022/01/08 09:15:46;;;;;;;7.03;2.03;;;;;;;0.75;96.22;95840.25;5060265;28;20045;-69
2022/01/08 09:18:11;;;;;;;8.85;2.60;;;;;;;0.84;96.33;95833.16;5060727;28;20173;-69
2022/01/08 09:20:37;;;;;;;6.35;1.98;;;;;;;0.83;95.61;95834.16;5061709;28;20041;-69
2022/01/08 09:23:06;;;;;;;7.72;2.80;;;;;;;0.90;94.96;95852.34;5059911;28;20044;-69
2022/01/08 09:25:34;;;;;;;7.00;2.17;;;;;;;0.94;94.74;95853.59;5059493;28;20044;-69
2022/01/08 09:28:00;;;;;;;;;;;;;;;0.94;94.29;95856.16;5058071;28;20048;-70
2022/01/08 09:30:26;;;;;;;8.18;2.38;;;;;;;0.84;94.15;95858.25;5058819;28;19921;-69
2022/01/08 09:32:52;;;;;;;7.18;2.45;;;;;;;0.91;95.45;95851.34;5058998;28;20045;-69
2022/01/08 09:35:18;;;;;;;7.55;2.67;;;;;;;0.82;95.71;95860.22;5066833;28;20472;-69
2022/01/08 09:37:44;;;;;;;7.15;2.63;;;;;;;0.71;96.08;95864.91;5066935;28;20123;-70
2022/01/08 09:40:15;;;;;;;9.85;2.45;;;;;;;0.76;95.59;95859.19;5065121;28;20396;-69
2022/01/08 09:42:44;;;;;;;7.85;2.75;;;;;;;0.74;95.26;95864.53;5060012;28;20037;-69
2022/01/08 09:45:11;;;;;;;9.25;2.80;;;;;;;0.76;95.03;95859.97;5057588;28;20073;-69
2022/01/08 09:47:37;;;;;;;7.60;3.00;;;;;;;0.67;95.10;95868.03;5057569;28;20098;-70
2022/01/08 09:50:04;;;;;;;9.30;3.00;;;;;;;0.70;95.91;95871.06;5059056;28;20041;-69
2022/01/08 09:52:32;;;;;;;12.13;4.75;;;;;;;0.63;94.79;95867.59;5058155;28;20041;-71
2022/01/08 09:54:58;;;;;;;8.13;3.38;;;;;;;0.59;92.89;95874.09;5058028;28;20443;-69
2022/01/08 09:57:23;;;;;;;10.45;3.25;;;;;;;0.68;94.24;95885.16;5057788;28;20041;-69
2022/01/08 09:59:51;;;;;;;7.53;2.28;;;;;;;0.67;95.10;95886.94;5058269;28;20049;-69
2022/01/08 10:02:21;;;;;;;6.65;2.28;;;;;;;0.66;94.75;95876.78;5056508;28;20101;-70
2022/01/08 10:04:46;;;;;;;7.20;2.28;;;;;;;0.69;95.29;95882.38;5056787;28;20041;-69
2022/01/08 10:07:16;;;;;;;6.70;2.20;;;;;;;0.70;95.15;95878.00;5067102;28;20041;-69
2022/01/08 10:10:12;;;;;;;8.15;2.63;;;;;;;0.64;95.03;95883.91;5058247;28;20045;-71
2022/01/08 10:12:45;;;;;;;7.22;2.30;;;;;;;0.61;95.77;95879.91;5057035;28;20036;-69
2022/01/08 10:18:01;;;;;;;8.30;2.25;;;;;;;0.85;95.82;95870.22;5058291;28;20107;-71
2022/01/08 10:20:32;;;;;;;10.23;2.90;;;;;;;0.94;95.83;95879.47;5059237;28;20045;-69
2022/01/08 10:23:14;;;;;;;8.13;2.80;;;;;;;1.03;95.09;95886.16;5059287;28;20036;-71
2022/01/08 10:25:42;;;;;;;8.60;2.90;;;;;;;0.95;94.38;95887.06;5056372;28;20374;-70
2022/01/08 10:28:10;;;;;;;7.72;2.30;;;;;;;0.90;91.37;95893.78;5057463;28;20052;-69
2022/01/08 10:30:37;;;;;;;;;;;;;;;0.96;92.24;95885.25;5061509;28;20045;-69
2022/01/08 10:33:03;;;;;;;7.25;1.90;;;;;;;0.91;92.00;95891.00;5061016;28;20335;-69
2022/01/08 10:35:53;;;;;;;6.55;1.63;;;;;;;0.88;89.88;95891.38;5059936;28;20045;-69
2022/01/08 10:38:19;;;;;;;5.60;1.50;;;;;;;0.96;90.12;95883.47;5057315;28;20493;-69
2022/01/08 10:40:44;;;;;;;7.32;2.08;;;;;;;1.05;89.96;95886.75;5056929;28;20037;-70
2022/01/08 10:43:25;;;;;;;5.82;1.75;;;;;;;1.12;89.05;95887.63;5058720;28;20048;-70
2022/01/08 10:45:53;;;;;;;6.43;1.83;;;;;;;1.06;88.51;95898.72;5056841;28;20465;-68
2022/01/08 10:48:30;;;;;;;7.65;1.58;;;;;;;1.03;88.46;95884.38;5057448;28;20099;-69
2022/01/08 10:51:09;;;;;;;7.00;1.83;;;;;;;0.86;88.58;95884.75;5057151;28;20051;-69
2022/01/08 10:53:54;;;;;;;5.53;1.80;;;;;;;0.83;89.43;95885.13;5055144;28;20049;-69
2022/01/08 10:56:21;;;;;;;6.53;1.50;;;;;;;0.82;89.42;95884.34;5056192;28;20052;-69
2022/01/08 10:58:52;;;;;;;5.47;1.60;;;;;;;0.76;88.07;95885.88;5058067;28;20132;-69
2022/01/08 11:01:38;;;;;;;5.95;1.63;;;;;;;0.82;90.21;95888.72;5055837;28;20041;-70
2022/01/08 11:04:07;;;;;;;4.97;2.08;;;;;;;0.86;89.94;95888.19;5057136;28;20438;-70
2022/01/08 11:06:33;;;;;;;7.00;2.17;;;;;;;0.82;89.55;95891.31;5075925;22;20595;-75
2022/01/08 11:09:00;;;;;;;5.13;1.52;;;;;;;0.79;90.56;95888.06;5056959;28;20078;-74
2022/01/08 11:11:29;;;;;;;6.57;2.10;;;;;;;0.78;89.49;95881.31;5057787;28;20064;-74
2022/01/08 11:13:58;;;;;;;6.47;1.88;;;;;;;0.88;89.80;95875.03;5055528;28;20045;-74
2022/01/08 11:16:25;;;;;;;6.15;1.83;;;;;;;0.88;88.06;95872.44;5053355;28;20109;-74
2022/01/08 11:18:52;;;;;;;7.00;2.05;;;;;;;0.87;86.54;95878.63;5053683;28;20048;-75
2022/01/08 11:21:18;;;;;;;5.90;1.60;;;;;;;0.84;85.51;95879.78;5051852;28;20044;-74
2022/01/08 11:23:44;;;;;;;5.50;1.50;;;;;;;0.87;85.04;95876.03;5053423;28;20123;-74
2022/01/08 11:26:10;;;;;;;6.80;1.73;;;;;;;0.93;82.90;95876.09;5052604;28;20072;-74
2022/01/08 11:28:39;;;;;;;5.72;1.50;;;;;;;0.99;81.00;95882.31;5053761;28;20045;-74
2022/01/08 11:31:08;;;;;;;5.82;1.55;;;;;;;1.06;81.33;95875.41;5053307;28;20037;-73
2022/01/08 11:33:36;;;;;;;6.45;2.17;;;;;;;1.04;80.04;95874.81;5053602;28;20048;-74
2022/01/08 11:36:06;;;;;;;9.32;2.03;;;;;;;0.93;79.24;95880.47;5053593;28;20415;-74
2022/01/08 11:38:31;;;;;;;;;;;;;;;1.03;79.23;95858.47;5053930;28;20470;-74
2022/01/08 11:41:01;;;;;;;6.32;1.83;;;;;;;1.06;79.92;95872.81;5053866;28;19968;-75
2022/01/08 11:43:28;;;;;;;7.32;1.50;;;;;;;1.08;77.00;95876.03;5053963;28;20182;-74
2022/01/08 11:45:57;;;;;;;3.83;1.10;;;;;;;1.06;77.73;95872.81;5051762;28;20118;-74
2022/01/08 11:48:27;;;;;;;5.28;1.30;;;;;;;1.21;82.21;95870.97;5053043;28;20040;-75
2022/01/08 11:50:54;;;;;;;12.20;2.05;;;;;;;1.12;80.16;95866.09;5052921;28;20045;-74
2022/01/08 11:53:24;;;;;;;4.88;1.52;;;;;;;1.10;80.05;95870.69;5064519;28;20045;-74
2022/01/08 11:55:51;;;;;;;4.30;1.45;;;;;;;1.13;79.23;95870.28;5059920;28;20110;-75